Time;durP1;ratioP1;P1;durP2;ratioP2;P2;SDS_P1;SDS_P2;PMS_P1;PMS_P2;Temp;Humidity;BMP_temperature;BMP_pressure;BME280_temperature;BME280_humidity;BME280_pressure;Samples;Min_cycle;Max_cycle;Signal;HPM_P1;HPM_P2
2020/12/26 00:00:22;;;;;;;8.63;1.60;;;2.80;99.90;;;;;;5082793;28;20046;-86
2020/12/26 00:02:49;;;;;;;7.88;1.95;;;2.80;99.90;;;;;;5096935;28;20127;-87
2020/12/26 00:05:14;;;;;;;7.80;1.50;;;2.80;99.90;;;;;;5063187;28;20929;-86
2020/12/26 00:07:40;;;;;;;5.03;1.55;;;2.90;99.90;;;;;;5101488;28;20040;-86
2020/12/26 00:10:06;;;;;;;8.57;2.55;;;2.90;99.90;;;;;;5098385;28;20063;-86
2020/12/26 00:12:34;;;;;;;9.70;1.60;;;2.90;99.90;;;;;;5100093;28;20044;-86
2020/12/26 00:15:01;;;;;;;9.95;1.67;;;2.90;99.90;;;;;;5084048;28;20039;-86
2020/12/26 00:17:27;;;;;;;10.65;1.52;;;3.00;99.90;;;;;;5100391;28;20497;-86
2020/12/26 00:19:52;;;;;;;7.90;1.95;;;3.00;99.90;;;;;;5080474;28;20052;-86
2020/12/26 00:22:18;;;;;;;10.80;1.95;;;2.90;99.90;;;;;;5098152;28;20036;-85
2020/12/26 00:24:44;;;;;;;12.20;3.10;;;2.90;99.90;;;;;;5097897;28;20036;-85
2020/12/26 00:27:10;;;;;;;6.15;1.75;;;2.90;99.90;;;;;;5095508;28;20404;-85
2020/12/26 00:29:36;;;;;;;5.50;1.63;;;2.90;99.90;;;;;;5080946;28;20086;-85
2020/12/26 00:32:02;;;;;;;10.90;1.80;;;2.80;99.90;;;;;;5080553;28;20145;-85
2020/12/26 00:34:27;;;;;;;11.23;1.90;;;2.80;99.90;;;;;;5094122;28;20036;-86
2020/12/26 00:36:53;;;;;;;16.55;3.95;;;2.90;99.90;;;;;;5073202;28;20369;-85
2020/12/26 00:39:20;;;;;;;13.20;2.80;;;2.80;99.90;;;;;;5091140;28;20048;-86
2020/12/26 00:41:47;;;;;;;7.55;1.75;;;2.80;99.90;;;;;;5089189;28;20051;-86
2020/12/26 00:44:14;;;;;;;11.18;1.70;;;2.70;99.90;;;;;;5069461;28;20051;-85
2020/12/26 00:46:40;;;;;;;4.75;1.58;;;2.70;99.90;;;;;;5083998;28;20055;-87
2020/12/26 00:49:05;;;;;;;17.15;2.30;;;2.70;99.90;;;;;;5073248;28;20116;-87
2020/12/26 00:51:31;;;;;;;7.07;1.67;;;2.70;99.90;;;;;;5090533;28;20052;-87
2020/12/26 00:53:57;;;;;;;10.73;1.88;;;2.70;99.90;;;;;;5069364;28;20123;-86
2020/12/26 00:56:23;;;;;;;17.83;3.13;;;2.60;99.90;;;;;;5053261;28;20055;-88
2020/12/26 00:58:49;;;;;;;15.85;2.95;;;2.60;99.90;;;;;;5068893;28;20509;-86
2020/12/26 01:01:15;;;;;;;11.18;1.70;;;2.60;99.90;;;;;;5052732;28;20076;-86
2020/12/26 01:03:41;;;;;;;7.50;1.40;;;2.60;99.90;;;;;;5068934;28;20047;-85
2020/12/26 01:06:15;;;;;;;5.05;1.60;;;2.60;99.90;;;;;;5069058;28;20064;-87
2020/12/26 01:08:41;;;;;;;5.60;1.45;;;2.60;99.90;;;;;;5069423;28;20036;-86
2020/12/26 01:11:07;;;;;;;8.32;1.38;;;2.60;99.90;;;;;;5068924;28;20052;-86
2020/12/26 01:13:33;;;;;;;12.23;1.75;;;2.60;99.90;;;;;;5067984;28;20433;-86
2020/12/26 01:15:59;;;;;;;7.55;1.65;;;2.60;99.90;;;;;;5052972;28;20063;-87
2020/12/26 01:18:28;;;;;;;13.23;2.28;;;2.70;99.90;;;;;;5068927;28;20473;-88
2020/12/26 01:20:57;;;;;;;6.30;1.60;;;2.70;99.90;;;;;;5070542;28;20045;-86
2020/12/26 01:23:23;;;;;;;12.52;2.38;;;2.80;99.90;;;;;;5072142;28;20055;-87
2020/12/26 01:25:52;;;;;;;6.70;1.67;;;2.80;99.90;;;;;;5072068;28;20048;-86
2020/12/26 01:28:18;;;;;;;10.02;2.35;;;2.70;99.90;;;;;;5072152;28;20428;-86
2020/12/26 01:30:44;;;;;;;13.75;2.53;;;2.80;99.90;;;;;;5071451;28;20040;-86
2020/12/26 01:33:10;;;;;;;6.60;1.73;;;2.80;99.90;;;;;;5055539;28;20449;-86
2020/12/26 01:35:35;;;;;;;7.15;1.58;;;2.80;99.90;;;;;;5071311;28;20052;-86
2020/12/26 01:38:01;;;;;;;7.70;1.83;;;2.80;99.90;;;;;;5088835;28;20481;-86
2020/12/26 01:40:27;;;;;;;7.03;1.50;;;2.80;99.90;;;;;;5055266;28;20048;-88
2020/12/26 01:42:53;;;;;;;6.50;1.92;;;2.80;99.90;;;;;;5068225;28;20036;-85
2020/12/26 01:45:19;;;;;;;4.18;1.33;;;2.80;99.90;;;;;;5081699;28;20047;-88
2020/12/26 01:47:45;;;;;;;3.58;1.48;;;2.80;99.90;;;;;;5088329;28;20044;-87
2020/12/26 01:50:11;;;;;;;10.10;1.70;;;2.80;99.90;;;;;;5076532;28;20489;-88
2020/12/26 01:52:37;;;;;;;14.75;1.98;;;2.80;99.90;;;;;;5051267;28;20051;-87
2020/12/26 01:55:03;;;;;;;8.93;1.70;;;2.70;99.90;;;;;;5035534;28;20144;-86
2020/12/26 01:57:36;;;;;;;9.18;1.58;;;2.80;99.90;;;;;;5068218;28;20040;-87
2020/12/26 02:00:05;;;;;;;5.85;1.50;;;2.80;99.90;;;;;;5070012;28;20044;-86
2020/12/26 02:02:31;;;;;;;7.53;1.33;;;2.90;99.90;;;;;;5051240;28;20044;-88
2020/12/26 02:04:57;;;;;;;5.25;1.23;;;2.90;99.90;;;;;;5068439;28;20040;-86
2020/12/26 02:07:24;;;;;;;6.38;1.42;;;2.80;99.90;;;;;;5068253;28;20052;-86
2020/12/26 02:09:52;;;;;;;8.02;1.77;;;2.90;99.90;;;;;;5067434;28;20219;-86
2020/12/26 02:12:18;;;;;;;12.50;2.28;;;2.90;99.90;;;;;;5077961;28;20111;-86
2020/12/26 02:14:48;;;;;;;11.90;2.10;;;3.00;99.90;;;;;;5071088;28;20125;-86
2020/12/26 02:17:13;;;;;;;7.40;1.80;;;3.00;99.90;;;;;;5088215;28;20048;-86
2020/12/26 02:19:39;;;;;;;6.03;1.77;;;3.00;99.90;;;;;;5088494;28;20126;-86
2020/12/26 02:22:05;;;;;;;11.55;1.77;;;3.00;99.90;;;;;;5088524;28;20052;-87
2020/12/26 02:24:31;;;;;;;10.27;2.20;;;3.00;99.90;;;;;;5087796;28;20074;-87
2020/12/26 02:26:57;;;;;;;8.13;1.92;;;2.90;99.90;;;;;;5090960;28;20051;-86
2020/12/26 02:29:23;;;;;;;7.97;2.40;;;3.00;99.90;;;;;;5074615;28;20040;-87
2020/12/26 02:31:49;;;;;;;11.18;1.80;;;3.00;99.90;;;;;;5090821;28;20118;-86
2020/12/26 02:34:14;;;;;;;9.95;1.98;;;3.00;99.90;;;;;;5091371;28;20656;-85
2020/12/26 02:36:40;;;;;;;9.57;2.10;;;3.10;99.90;;;;;;5090282;28;20047;-85
2020/12/26 02:39:07;;;;;;;12.55;2.47;;;3.10;99.90;;;;;;5058923;28;20517;-85
2020/12/26 02:41:33;;;;;;;20.27;3.65;;;3.20;99.90;;;;;;5054469;28;20040;-86
2020/12/26 02:43:59;;;;;;;10.43;1.90;;;3.10;99.90;;;;;;5071140;28;20542;-86
2020/12/26 02:46:25;;;;;;;6.18;2.00;;;3.10;99.90;;;;;;5071231;28;20039;-87
2020/12/26 02:48:51;;;;;;;7.05;1.58;;;3.10;99.90;;;;;;5053579;28;20101;-86
2020/12/26 02:51:17;;;;;;;5.05;1.83;;;3.10;99.90;;;;;;5059606;28;20052;-86
2020/12/26 02:53:42;;;;;;;7.30;1.90;;;3.10;99.90;;;;;;5053605;28;20641;-86
2020/12/26 02:56:11;;;;;;;10.68;1.90;;;3.10;99.90;;;;;;5054591;28;20051;-86
2020/12/26 02:58:39;;;;;;;8.40;1.33;;;3.20;99.90;;;;;;5070424;28;20048;-87
2020/12/26 03:01:05;;;;;;;4.43;1.63;;;3.20;99.90;;;;;;5055056;28;20040;-85
2020/12/26 03:03:30;;;;;;;7.85;2.15;;;3.20;99.90;;;;;;5071056;28;20586;-86
2020/12/26 03:06:00;;;;;;;6.85;1.27;;;3.20;99.90;;;;;;5070609;28;20042;-86
2020/12/26 03:08:25;;;;;;;5.72;1.60;;;3.20;99.90;;;;;;5054985;28;20054;-86
2020/12/26 03:10:51;;;;;;;4.43;1.15;;;3.20;99.90;;;;;;5071313;28;20040;-87
2020/12/26 03:13:17;;;;;;;5.95;1.40;;;3.20;99.90;;;;;;5054521;28;20044;-87
2020/12/26 03:15:43;;;;;;;8.07;1.83;;;3.20;99.90;;;;;;5053905;28;20101;-87
2020/12/26 03:18:08;;;;;;;5.07;1.30;;;3.20;99.90;;;;;;5070958;28;20504;-86
2020/12/26 03:20:34;;;;;;;8.00;2.05;;;3.20;99.90;;;;;;5054107;28;20036;-87
2020/12/26 03:23:00;;;;;;;3.00;1.42;;;3.30;99.90;;;;;;5070471;28;20051;-86
2020/12/26 03:25:26;;;;;;;6.35;1.70;;;3.20;99.90;;;;;;5071032;28;20047;-86
2020/12/26 03:27:51;;;;;;;9.50;1.60;;;3.20;99.90;;;;;;5083236;28;20524;-87
2020/12/26 03:30:17;;;;;;;5.15;1.23;;;3.20;99.90;;;;;;5091606;28;20068;-87
2020/12/26 03:32:43;;;;;;;5.18;1.88;;;3.20;99.90;;;;;;5090892;28;20036;-86
2020/12/26 03:35:09;;;;;;;12.73;1.50;;;3.20;99.90;;;;;;5089120;28;20071;-85
2020/12/26 03:37:36;;;;;;;2.58;1.38;;;3.20;99.90;;;;;;5102965;28;20381;-86
2020/12/26 03:40:05;;;;;;;6.40;1.30;;;3.20;99.90;;;;;;5078657;28;20040;-86
2020/12/26 03:42:30;;;;;;;9.55;1.35;;;3.20;99.90;;;;;;5092544;28;20071;-86
2020/12/26 03:44:56;;;;;;;2.72;1.27;;;3.20;99.90;;;;;;5073620;28;20593;-86
2020/12/26 03:47:22;;;;;;;6.50;1.25;;;3.20;99.90;;;;;;5068795;28;20047;-85
2020/12/26 03:49:48;;;;;;;7.53;1.38;;;3.20;99.90;;;;;;5093515;28;20039;-86
2020/12/26 03:52:13;;;;;;;10.82;1.30;;;3.20;99.90;;;;;;5057554;28;20550;-85
2020/12/26 03:54:39;;;;;;;3.72;1.00;;;3.20;99.90;;;;;;5073505;28;20123;-88
2020/12/26 03:57:05;;;;;;;4.45;1.30;;;3.20;99.90;;;;;;5091796;28;20048;-86
2020/12/26 03:59:31;;;;;;;8.80;1.80;;;3.20;99.90;;;;;;5073704;28;20401;-86
2020/12/26 04:01:59;;;;;;;8.15;1.15;;;3.10;99.90;;;;;;5077528;28;20039;-85
2020/12/26 04:04:25;;;;;;;5.03;1.35;;;3.10;99.90;;;;;;5112295;28;20118;-85
2020/12/26 04:06:51;;;;;;;5.60;1.25;;;3.20;99.90;;;;;;5093331;28;20044;-85
2020/12/26 04:09:17;;;;;;;6.03;1.00;;;3.10;99.90;;;;;;5075690;28;20046;-84
2020/12/26 04:11:43;;;;;;;6.85;1.10;;;3.10;99.90;;;;;;5090767;28;20067;-87
2020/12/26 04:14:09;;;;;;;3.17;1.17;;;3.10;99.90;;;;;;5056847;28;20507;-85
2020/12/26 04:16:35;;;;;;;9.13;1.27;;;3.00;99.90;;;;;;5091582;28;20485;-85
2020/12/26 04:19:00;;;;;;;8.30;1.20;;;3.00;99.90;;;;;;5039424;28;20651;-85
2020/12/26 04:21:26;;;;;;;8.43;1.25;;;3.00;99.90;;;;;;5089562;28;20056;-85
2020/12/26 04:23:53;;;;;;;10.98;1.30;;;2.90;99.90;;;;;;5076096;28;20549;-85
2020/12/26 04:26:20;;;;;;;6.85;1.35;;;2.90;99.90;;;;;;5111875;28;20043;-85
2020/12/26 04:28:46;;;;;;;3.95;0.80;;;2.90;99.90;;;;;;5110614;28;20062;-85
2020/12/26 04:31:12;;;;;;;4.07;0.85;;;2.90;99.90;;;;;;5099769;28;20047;-85
2020/12/26 04:33:38;;;;;;;4.53;0.85;;;2.80;99.90;;;;;;5073036;28;20040;-85
2020/12/26 04:36:05;;;;;;;9.02;1.20;;;2.80;99.90;;;;;;5039424;28;20105;-85
2020/12/26 04:38:32;;;;;;;5.13;1.05;;;2.80;99.90;;;;;;5091137;28;20048;-85
2020/12/26 04:40:58;;;;;;;9.82;1.10;;;2.80;99.90;;;;;;5078183;28;20043;-85
2020/12/26 04:43:25;;;;;;;2.70;0.90;;;2.80;99.90;;;;;;5082295;28;20040;-85
2020/12/26 04:45:54;;;;;;;6.32;1.00;;;2.80;99.90;;;;;;5090020;28;20044;-86
2020/12/26 04:48:30;;;;;;;7.47;1.17;;;2.70;99.90;;;;;;5091043;28;20055;-85
2020/12/26 04:51:03;;;;;;;5.22;1.40;;;2.70;99.90;;;;;;5090134;28;20052;-85
2020/12/26 04:53:32;;;;;;;8.98;1.55;;;2.70;99.90;;;;;;5090750;28;20386;-86
2020/12/26 04:56:03;;;;;;;8.55;1.40;;;2.60;99.90;;;;;;5092852;28;20051;-86
2020/12/26 04:58:29;;;;;;;;;;;2.60;99.90;;;;;;5076272;28;20043;-85
2020/12/26 05:00:55;;;;;;;7.60;1.40;;;2.60;99.90;;;;;;5075161;28;19966;-85
2020/12/26 05:03:27;;;;;;;2.38;1.20;;;2.60;99.90;;;;;;5076354;28;20400;-85
2020/12/26 05:06:03;;;;;;;9.07;1.42;;;2.50;99.90;;;;;;5092263;28;20040;-85
2020/12/26 05:08:29;;;;;;;5.10;1.40;;;2.50;99.90;;;;;;5092815;28;20040;-86
2020/12/26 05:10:56;;;;;;;5.00;1.40;;;2.50;99.90;;;;;;5082473;28;20043;-86
2020/12/26 05:13:22;;;;;;;11.95;1.95;;;2.50;99.90;;;;;;5091798;28;20396;-87
2020/12/26 05:15:48;;;;;;;8.77;1.90;;;2.50;99.90;;;;;;5110062;28;20043;-87
2020/12/26 05:18:13;;;;;;;8.15;1.48;;;2.40;99.90;;;;;;5059626;28;20397;-85
2020/12/26 05:20:39;;;;;;;11.13;2.13;;;2.40;99.90;;;;;;5091684;28;20066;-86
2020/12/26 05:23:13;;;;;;;11.98;1.90;;;2.40;99.90;;;;;;5075131;28;20284;-84
2020/12/26 05:25:50;;;;;;;12.50;2.15;;;2.50;99.90;;;;;;5111010;28;20036;-85
2020/12/26 05:28:21;;;;;;;6.10;2.00;;;2.50;99.90;;;;;;5092335;28;20051;-84
2020/12/26 05:30:51;;;;;;;5.50;1.80;;;2.50;99.90;;;;;;5092384;28;20544;-89
2020/12/26 05:33:18;;;;;;;12.30;2.25;;;2.60;99.90;;;;;;5072300;28;20047;-86
2020/12/26 05:35:46;;;;;;;8.65;2.28;;;2.60;99.90;;;;;;5055286;28;20050;-86
2020/12/26 05:38:23;;;;;;;10.90;2.20;;;2.70;99.90;;;;;;5090246;28;20044;-86
2020/12/26 05:40:53;;;;;;;12.63;2.42;;;2.70;99.90;;;;;;5069420;28;20035;-86
2020/12/26 05:43:21;;;;;;;7.00;1.85;;;2.70;99.90;;;;;;5075522;28;20050;-86
2020/12/26 05:45:48;;;;;;;9.70;1.98;;;2.80;99.90;;;;;;5091800;28;20055;-88
2020/12/26 05:48:17;;;;;;;10.40;2.33;;;2.80;99.90;;;;;;5092100;28;20403;-85
2020/12/26 05:50:43;;;;;;;14.00;2.60;;;2.80;99.90;;;;;;5098761;28;20105;-85
2020/12/26 05:53:12;;;;;;;7.90;2.47;;;2.80;99.90;;;;;;5069301;28;20039;-85
2020/12/26 05:55:45;;;;;;;15.07;3.03;;;2.80;99.90;;;;;;5092373;28;20039;-85
2020/12/26 05:58:13;;;;;;;12.80;2.80;;;2.80;99.90;;;;;;5109199;28;20044;-86
2020/12/26 06:00:42;;;;;;;14.75;3.50;;;2.80;99.90;;;;;;5091817;28;20044;-85
2020/12/26 06:03:25;;;;;;;10.93;2.77;;;2.80;99.90;;;;;;5089406;28;20031;-85
2020/12/26 06:05:53;;;;;;;9.02;3.22;;;2.70;99.90;;;;;;5074870;28;20305;-87
2020/12/26 06:08:20;;;;;;;10.20;3.67;;;2.80;99.90;;;;;;5091715;28;20117;-86
2020/12/26 06:10:55;;;;;;;7.00;3.20;;;2.70;99.90;;;;;;5091897;28;20892;-86
2020/12/26 06:13:22;;;;;;;7.43;3.60;;;2.80;99.90;;;;;;5109790;28;20046;-85
2020/12/26 06:15:53;;;;;;;7.97;3.70;;;2.90;99.90;;;;;;5109396;28;20039;-88
2020/12/26 06:18:21;;;;;;;11.88;4.20;;;2.90;99.90;;;;;;5084639;28;20036;-85
2020/12/26 06:20:49;;;;;;;16.05;5.00;;;2.90;99.90;;;;;;5054963;28;20043;-85
2020/12/26 06:23:20;;;;;;;7.40;4.05;;;3.00;99.90;;;;;;5054403;28;20051;-85
2020/12/26 06:25:47;;;;;;;12.68;5.28;;;3.00;99.90;;;;;;5089394;28;20166;-85
2020/12/26 06:28:34;;;;;;;13.77;5.28;;;3.00;99.90;;;;;;5073050;28;20052;-85
2020/12/26 06:31:08;;;;;;;14.05;5.28;;;3.10;99.90;;;;;;5073834;28;20253;-86
2020/12/26 06:33:50;;;;;;;14.07;5.90;;;3.00;99.90;;;;;;5071584;28;20036;-85
2020/12/26 06:36:17;;;;;;;13.25;6.13;;;3.10;99.90;;;;;;5087380;28;20532;-86
2020/12/26 06:38:43;;;;;;;17.50;6.13;;;3.10;99.90;;;;;;5091544;28;20086;-85
2020/12/26 06:41:19;;;;;;;16.65;5.97;;;3.10;99.90;;;;;;5037597;28;20539;-86
2020/12/26 06:43:47;;;;;;;15.68;6.40;;;3.10;99.90;;;;;;5054890;28;20121;-87
2020/12/26 06:46:16;;;;;;;12.02;6.28;;;3.10;99.90;;;;;;5082635;28;20046;-85
2020/12/26 06:48:43;;;;;;;9.00;5.45;;;3.10;99.90;;;;;;5074643;28;20052;-85
2020/12/26 06:51:30;;;;;;;13.75;6.57;;;3.10;99.90;;;;;;5090918;28;20081;-85
2020/12/26 06:54:02;;;;;;;16.17;6.65;;;3.00;99.90;;;;;;5090471;28;20044;-85
2020/12/26 06:56:33;;;;;;;16.75;7.28;;;3.00;99.90;;;;;;5089932;28;20041;-85
2020/12/26 06:59:07;;;;;;;15.57;7.10;;;3.00;99.90;;;;;;5074706;28;20044;-85
2020/12/26 07:01:35;;;;;;;14.63;6.05;;;2.90;99.90;;;;;;5054697;28;20055;-86
2020/12/26 07:04:07;;;;;;;19.20;6.63;;;3.00;99.90;;;;;;5070790;28;20123;-85
2020/12/26 07:06:40;;;;;;;20.35;7.85;;;3.00;99.90;;;;;;5088967;28;20044;-85
2020/12/26 07:09:06;;;;;;;17.23;6.72;;;3.00;99.90;;;;;;5088455;28;20066;-85
2020/12/26 07:11:43;;;;;;;17.95;7.15;;;3.10;99.90;;;;;;5091013;28;20086;-86
2020/12/26 07:14:09;;;;;;;18.50;7.13;;;3.10;99.90;;;;;;5074230;28;20047;-85
2020/12/26 07:16:37;;;;;;;18.83;6.35;;;3.10;99.90;;;;;;5092942;28;20486;-85
2020/12/26 07:19:29;;;;;;;17.10;6.57;;;3.00;99.90;;;;;;5073975;28;20044;-85
2020/12/26 07:21:56;;;;;;;15.30;6.35;;;3.00;99.90;;;;;;5074427;28;20049;-88
2020/12/26 07:24:24;;;;;;;12.60;6.40;;;3.10;99.90;;;;;;5092556;28;20044;-85
2020/12/26 07:26:51;;;;;;;16.95;6.63;;;3.00;99.90;;;;;;5092422;28;20036;-86
2020/12/26 07:29:27;;;;;;;16.80;7.13;;;3.00;99.90;;;;;;5074113;28;20084;-86
2020/12/26 07:31:54;;;;;;;15.45;6.35;;;3.00;99.90;;;;;;5097153;28;20036;-86
2020/12/26 07:34:37;;;;;;;10.20;6.20;;;3.00;99.90;;;;;;5112183;28;20502;-86
2020/12/26 07:37:04;;;;;;;13.90;6.05;;;3.00;99.90;;;;;;5077094;28;20473;-85
2020/12/26 07:39:29;;;;;;;20.65;6.18;;;2.90;99.90;;;;;;5094609;28;20039;-86
2020/12/26 07:41:56;;;;;;;20.02;6.95;;;2.90;99.90;;;;;;5074674;28;20082;-88
2020/12/26 07:44:29;;;;;;;17.60;6.15;;;3.00;99.90;;;;;;5074319;28;20474;-86
2020/12/26 07:46:56;;;;;;;14.13;5.85;;;3.00;99.90;;;;;;5074619;28;20473;-88
2020/12/26 07:49:23;;;;;;;16.02;5.93;;;3.00;99.90;;;;;;5057303;28;20048;-84
2020/12/26 07:52:06;;;;;;;11.85;5.93;;;3.10;99.90;;;;;;5077183;28;20067;-86
2020/12/26 07:54:32;;;;;;;24.45;6.78;;;3.10;99.90;;;;;;5060466;28;20055;-86
2020/12/26 07:56:58;;;;;;;13.98;5.82;;;3.20;99.90;;;;;;5057341;28;20040;-88
2020/12/26 07:59:25;;;;;;;16.23;6.03;;;3.20;99.90;;;;;;5057362;28;20059;-85
2020/12/26 08:01:59;;;;;;;12.38;6.10;;;3.20;99.90;;;;;;5084468;28;20388;-86
2020/12/26 08:04:25;;;;;;;11.55;5.95;;;3.20;99.90;;;;;;5077774;28;20040;-86
2020/12/26 08:06:51;;;;;;;10.60;5.60;;;3.20;99.90;;;;;;5098571;27;20058;-86
2020/12/26 08:09:18;;;;;;;15.88;5.93;;;3.30;99.90;;;;;;5108178;27;20046;-87
2020/12/26 08:11:45;;;;;;;19.38;6.38;;;3.30;99.90;;;;;;5119495;27;20043;-86
2020/12/26 08:14:13;;;;;;;12.27;6.05;;;3.20;99.90;;;;;;5107744;27;20061;-86
2020/12/26 08:16:39;;;;;;;14.60;5.70;;;3.20;99.90;;;;;;5102058;27;20078;-87
2020/12/26 08:19:05;;;;;;;14.27;5.88;;;3.20;99.90;;;;;;5132741;27;20039;-87
2020/12/26 08:21:31;;;;;;;21.15;9.02;;;3.20;99.90;;;;;;5101417;27;20036;-88
2020/12/26 08:23:59;;;;;;;11.57;5.95;;;3.30;99.90;;;;;;5075254;28;20060;-88
2020/12/26 08:26:29;;;;;;;13.15;6.15;;;3.30;99.90;;;;;;5075293;28;20044;-86
2020/12/26 08:29:03;;;;;;;17.05;6.32;;;3.30;99.90;;;;;;5091451;28;20052;-86
2020/12/26 08:31:31;;;;;;;12.60;5.50;;;3.30;99.90;;;;;;5073549;28;20050;-86
2020/12/26 08:34:17;;;;;;;16.38;6.43;;;3.40;99.90;;;;;;5091642;28;20036;-85
2020/12/26 08:37:17;;;;;;;14.75;6.07;;;3.40;99.90;;;;;;5092729;28;20059;-86
2020/12/26 08:39:44;;;;;;;17.15;7.13;;;3.50;99.90;;;;;;5094679;28;20448;-86
2020/12/26 08:42:18;;;;;;;11.10;6.35;;;3.50;99.90;;;;;;5111860;28;20044;-86
2020/12/26 08:44:43;;;;;;;18.88;5.85;;;3.50;99.90;;;;;;5098213;27;20153;-87
2020/12/26 08:47:10;;;;;;;16.77;6.20;;;3.50;99.90;;;;;;5083914;27;20071;-86
2020/12/26 08:49:43;;;;;;;16.50;5.80;;;3.60;99.90;;;;;;5084607;27;20531;-87
2020/12/26 08:52:09;;;;;;;10.50;5.45;;;3.60;99.90;;;;;;5097771;28;20059;-87
2020/12/26 08:54:35;;;;;;;8.98;6.22;;;3.70;99.90;;;;;;5076866;28;20542;-87
2020/12/26 08:57:00;;;;;;;17.90;7.13;;;3.80;99.90;;;;;;5072892;28;20160;-87
2020/12/26 08:59:29;;;;;;;14.43;5.32;;;3.70;99.90;;;;;;5072742;28;20048;-87
2020/12/26 09:01:56;;;;;;;17.35;5.70;;;3.80;99.90;;;;;;5074110;28;20040;-87
2020/12/26 09:04:23;;;;;;;12.88;6.55;;;3.90;99.90;;;;;;5057140;28;20828;-92
2020/12/26 09:06:48;;;;;;;13.93;6.30;;;3.90;99.90;;;;;;5073512;28;20051;-90
2020/12/26 09:09:22;;;;;;;19.27;6.72;;;3.90;99.90;;;;;;5070545;27;20412;-87
2020/12/26 09:12:01;;;;;;;13.02;5.60;;;4.00;99.90;;;;;;5089397;27;20143;-88
2020/12/26 09:14:27;;;;;;;13.50;5.72;;;4.10;99.90;;;;;;5091048;27;20612;-87
2020/12/26 09:16:57;;;;;;;15.35;6.28;;;4.10;99.90;;;;;;5064466;28;20105;-88
2020/12/26 09:19:24;;;;;;;17.30;6.05;;;4.10;99.90;;;;;;5100616;27;20031;-87
2020/12/26 09:21:49;;;;;;;10.85;5.78;;;4.10;99.90;;;;;;5081544;27;20043;-87
2020/12/26 09:24:18;;;;;;;14.77;6.72;;;4.20;99.90;;;;;;5083560;28;20604;-87
2020/12/26 09:26:44;;;;;;;11.45;6.70;;;4.20;99.90;;;;;;5098972;28;20055;-88
2020/12/26 09:29:10;;;;;;;12.63;5.60;;;4.30;99.90;;;;;;5080498;28;20450;-88
2020/12/26 09:31:40;;;;;;;11.20;6.15;;;4.30;99.90;;;;;;5070632;28;20134;-87
2020/12/26 09:34:16;;;;;;;11.15;6.15;;;4.30;99.90;;;;;;5091230;28;20058;-88
2020/12/26 09:36:43;;;;;;;11.55;5.38;;;4.40;99.90;;;;;;5092793;28;20435;-87
2020/12/26 09:39:09;;;;;;;11.23;5.07;;;4.40;99.90;;;;;;5062139;28;20118;-88
2020/12/26 09:41:53;;;;;;;12.10;5.00;;;4.40;99.90;;;;;;5072802;28;20495;-87
2020/12/26 09:44:19;;;;;;;13.75;5.13;;;4.50;99.90;;;;;;5071857;28;20055;-88
2020/12/26 09:46:45;;;;;;;11.50;4.50;;;4.50;99.90;;;;;;5055738;28;20409;-87
2020/12/26 09:49:11;;;;;;;11.90;5.10;;;4.60;99.90;;;;;;5054747;28;20051;-90
2020/12/26 09:51:37;;;;;;;12.32;5.20;;;4.50;99.90;;;;;;5056340;28;20056;-88
2020/12/26 09:54:07;;;;;;;12.48;4.70;;;4.60;99.90;;;;;;5072922;28;20058;-88
2020/12/26 09:56:36;;;;;;;8.57;3.92;;;4.60;99.90;;;;;;5041350;28;20431;-88
2020/12/26 09:59:01;;;;;;;21.63;5.10;;;4.70;99.90;;;;;;5026025;28;20054;-88
2020/12/26 10:01:27;;;;;;;14.57;4.18;;;4.60;99.90;;;;;;5072638;28;20043;-88
2020/12/26 10:03:53;;;;;;;19.20;4.40;;;4.60;99.90;;;;;;5073713;28;20508;-88
2020/12/26 10:06:20;;;;;;;10.15;4.05;;;4.70;99.90;;;;;;5072957;28;20051;-88
2020/12/26 10:08:47;;;;;;;9.02;3.67;;;4.80;99.90;;;;;;5040855;28;20130;-88
2020/12/26 10:11:15;;;;;;;13.85;4.05;;;4.80;99.90;;;;;;5071832;28;20070;-89
2020/12/26 10:13:42;;;;;;;3.50;2.53;;;4.80;99.90;;;;;;5072788;28;20046;-88
2020/12/26 10:16:09;;;;;;;13.15;3.58;;;4.80;99.90;;;;;;5071277;28;20051;-89
2020/12/26 10:18:38;;;;;;;7.25;2.78;;;4.80;99.90;;;;;;5041304;28;20496;-90
2020/12/26 10:21:04;;;;;;;6.20;2.65;;;4.90;99.90;;;;;;5094950;27;20490;-88
2020/12/26 10:23:30;;;;;;;10.07;2.90;;;4.90;99.90;;;;;;5100782;28;20035;-87
2020/12/26 10:26:04;;;;;;;7.60;2.60;;;5.00;99.90;;;;;;5095209;28;20048;-90
2020/12/26 10:28:31;;;;;;;6.55;2.55;;;5.00;99.90;;;;;;5078044;28;20083;-87
2020/12/26 10:30:57;;;;;;;11.38;3.95;;;5.00;99.90;;;;;;5059207;28;20044;-90
2020/12/26 10:33:23;;;;;;;4.72;2.13;;;5.10;99.80;;;;;;5072344;28;20049;-88
2020/12/26 10:35:49;;;;;;;7.22;2.42;;;5.20;99.60;;;;;;5092483;28;20105;-86
2020/12/26 10:38:15;;;;;;;6.80;2.30;;;5.20;99.50;;;;;;5087933;28;20040;-88
2020/12/26 10:40:40;;;;;;;12.27;2.22;;;5.30;99.40;;;;;;5078932;28;20097;-87
2020/12/26 10:43:06;;;;;;;13.68;2.90;;;5.30;99.40;;;;;;5080800;28;20040;-86
2020/12/26 10:45:32;;;;;;;5.90;2.50;;;5.40;99.20;;;;;;5083288;27;20043;-87
2020/12/26 10:47:58;;;;;;;6.47;2.45;;;5.50;99.10;;;;;;5128365;27;20392;-86
2020/12/26 10:50:23;;;;;;;6.15;2.40;;;5.40;99.00;;;;;;5081164;27;20128;-87
2020/12/26 10:52:49;;;;;;;9.00;2.47;;;5.50;99.00;;;;;;5069302;28;20498;-88
2020/12/26 10:55:15;;;;;;;10.40;2.38;;;5.60;98.80;;;;;;5091868;28;20136;-87
2020/12/26 10:57:45;;;;;;;3.67;2.10;;;5.60;98.60;;;;;;5082233;27;20035;-86
2020/12/26 11:00:12;;;;;;;13.32;2.40;;;5.70;98.50;;;;;;5102964;27;20043;-85
2020/12/26 11:02:39;;;;;;;5.03;1.92;;;5.70;98.50;;;;;;5102145;27;20046;-86
2020/12/26 11:05:05;;;;;;;7.85;1.92;;;5.80;98.30;;;;;;5090402;27;20043;-88
2020/12/26 11:07:32;;;;;;;8.48;2.38;;;5.80;98.20;;;;;;5085604;27;20760;-88
2020/12/26 11:09:58;;;;;;;4.90;1.92;;;5.70;98.00;;;;;;5103970;28;20442;-86
2020/12/26 11:12:27;;;;;;;5.72;1.70;;;5.80;98.20;;;;;;5124126;27;20073;-86
2020/12/26 11:14:53;;;;;;;4.53;2.35;;;5.80;98.30;;;;;;5070228;27;20055;-85
2020/12/26 11:17:19;;;;;;;2.65;1.80;;;5.80;98.40;;;;;;5079109;28;20405;-88
2020/12/26 11:19:45;;;;;;;12.90;3.08;;;5.90;98.20;;;;;;5090544;28;20044;-86
2020/12/26 11:22:11;;;;;;;13.40;2.40;;;5.80;97.90;;;;;;5113411;28;20755;-86
2020/12/26 11:24:36;;;;;;;8.35;1.80;;;5.80;98.00;;;;;;5094575;28;20043;-86
2020/12/26 11:27:03;;;;;;;6.38;2.25;;;5.80;98.00;;;;;;5095071;28;20052;-86
2020/12/26 11:29:29;;;;;;;6.93;2.10;;;5.70;97.80;;;;;;5094235;28;20048;-85
2020/12/26 11:31:58;;;;;;;13.73;2.78;;;5.80;98.00;;;;;;5073529;28;20044;-87
2020/12/26 11:34:25;;;;;;;7.57;1.80;;;5.70;98.00;;;;;;5040471;28;20446;-86
2020/12/26 11:36:50;;;;;;;7.38;1.92;;;5.80;97.90;;;;;;5063628;28;20127;-86
2020/12/26 11:39:16;;;;;;;7.47;1.80;;;5.70;98.10;;;;;;5074229;28;20520;-86
2020/12/26 11:41:42;;;;;;;8.25;2.05;;;5.70;97.90;;;;;;5056956;28;20063;-86
2020/12/26 11:44:08;;;;;;;5.13;2.13;;;5.70;97.80;;;;;;5057877;28;20044;-86
2020/12/26 11:46:34;;;;;;;6.03;2.28;;;5.60;97.70;;;;;;5056125;28;20550;-85
2020/12/26 11:49:01;;;;;;;13.75;2.20;;;5.70;97.90;;;;;;5092142;28;20066;-86
2020/12/26 11:51:27;;;;;;;9.30;2.63;;;5.60;97.80;;;;;;5073682;28;20040;-86
2020/12/26 11:53:52;;;;;;;4.47;2.05;;;5.60;97.80;;;;;;5057615;28;20705;-85
2020/12/26 11:56:19;;;;;;;6.55;2.40;;;5.60;97.80;;;;;;5056749;28;20127;-86
2020/12/26 11:58:45;;;;;;;7.10;2.47;;;5.70;97.70;;;;;;5071816;28;20040;-86
2020/12/26 12:01:11;;;;;;;12.50;2.63;;;5.70;97.70;;;;;;5073094;28;20047;-85
2020/12/26 12:03:37;;;;;;;7.82;2.13;;;5.70;97.60;;;;;;5073116;28;20044;-86
2020/12/26 12:06:04;;;;;;;5.90;2.35;;;5.70;97.30;;;;;;5056703;28;20048;-86
2020/12/26 12:08:30;;;;;;;5.88;2.00;;;5.70;97.60;;;;;;5105024;28;20046;-86
2020/12/26 12:10:56;;;;;;;9.52;2.42;;;5.70;97.40;;;;;;5093533;28;20055;-87
2020/12/26 12:13:22;;;;;;;6.03;2.35;;;5.80;97.20;;;;;;5111965;28;20484;-89
2020/12/26 12:15:48;;;;;;;7.80;1.65;;;5.70;97.40;;;;;;5093386;28;20040;-86
2020/12/26 12:18:14;;;;;;;7.72;2.25;;;5.70;97.20;;;;;;5102603;28;20070;-86
2020/12/26 12:20:40;;;;;;;8.80;3.10;;;5.70;97.00;;;;;;5085524;28;20043;-86
2020/12/26 12:23:06;;;;;;;5.70;2.72;;;5.80;97.20;;;;;;5077309;28;20626;-86
2020/12/26 12:25:32;;;;;;;5.85;2.78;;;5.80;97.00;;;;;;5076334;28;20046;-86
2020/12/26 12:27:58;;;;;;;8.80;2.83;;;5.70;97.00;;;;;;5077256;28;20087;-86
2020/12/26 12:30:25;;;;;;;5.65;2.95;;;5.80;97.40;;;;;;5092934;28;20048;-88
2020/12/26 12:32:50;;;;;;;6.93;3.00;;;5.70;97.00;;;;;;5040029;28;20039;-86
2020/12/26 12:35:16;;;;;;;9.63;3.17;;;5.80;97.20;;;;;;5040050;28;20782;-86
2020/12/26 12:37:49;;;;;;;11.10;3.15;;;5.70;97.30;;;;;;5056295;28;20044;-85
2020/12/26 12:40:16;;;;;;;9.48;2.60;;;5.80;97.30;;;;;;5056642;28;20044;-86
2020/12/26 12:42:42;;;;;;;7.63;2.90;;;5.80;97.20;;;;;;5055892;28;20036;-86
2020/12/26 12:45:11;;;;;;;10.95;2.58;;;5.80;97.00;;;;;;5074188;28;20063;-86
2020/12/26 12:47:37;;;;;;;7.85;2.58;;;5.80;97.10;;;;;;5071833;28;20048;-86
2020/12/26 12:50:05;;;;;;;8.95;2.95;;;5.80;97.30;;;;;;5072933;28;20496;-86
2020/12/26 12:52:31;;;;;;;6.15;3.20;;;5.80;97.30;;;;;;5072205;28;20048;-86
2020/12/26 12:54:57;;;;;;;18.05;3.55;;;5.80;97.10;;;;;;5057623;28;20054;-86